Terminal Aerodrome Forecast
Issued by NWS

Home | Current Version | Previous Version | Text Only | Print | Product List | Glossary On
Versions: 1 2 3 4 5 6 7 8 9 10 11 12 13 14 15 16
000
FTUS46 KSGX 192321
TAFONT
TAF
KONT 192321Z 2000/2106 26011KT P6SM SKC
     FM200400 VRB04KT P6SM FEW012
     FM201000 VRB03KT 4SM BR BKN010
     FM201600 VRB04KT P6SM FEW012
     FM201900 25011KT P6SM SKC
     FM210400 VRB04KT P6SM SKC=

USA.gov is the U.S. government's official web portal to all federal, state and local government web resources and services.